الصفحة الرئيسية
METAR-TAF:

METAR-TAF

مطار :

Makassar, سولاوسي الجنوبية, إندونيسيا

دائرة عرض: 05-04S, خط طول: 119-33E, ارتفاع: 14 متر

مراقبة الطقس الحالي

تاريخ ووقت الإصدار 43 دقيقة قبل الساعة 21:30UTC
ريح 1 عقدة من الجنوب الشرقي
درجة الحرارة 23°درجة مئوية
الرطوبة 100%
ضغط 1011 hPa
الرؤية: 9000 متر
غيوم قليلة على ارتفاع 2000 قدم

METAR: WAAA 032130Z 14001KT 9000 FEW020 23/23 Q1011 NOSIG

زمن: 05:13 (22:13 UTC)

توقعات

تاريخ ووقت الإصدار 5ساعات و 13 دقيقة قبل الساعة 17:00UTC
التوقعات صالحة من03 الساعة 18 UTC إلى 05 الساعة 00 UTC
ريح 5 عقدة من الشرق/الجنوب الشرقي
الرؤية: 8000 متر
غيوم قليلة على ارتفاع 2000 قدم
أصبح
من 03 الساعة 21 UTC إلى 03 الساعة 23 UTC
الرؤية 10 كم أو أكثر
أصبح
من 04 الساعة 02 UTC إلى 04 الساعة 04 UTC
ريح 8 عقدة من الغرب/الشمال الغربي

TAF: WAAA 031700Z 0318/0500 11005KT 8000 FEW020 BECMG 0321/0323 9999 BECMG 0402/0404 29008KT

أرصاد الطقس والتوقعات من أكثر من 4000 مطار (تقارير الطقس للمطار METAR والتنبؤ بالطقس بالمطارTAF).

المحطات المتاحة هي النقط الصفراء والحمراء على الخريطة.

حرك المؤشر فوق النقطة لمعرفة اسم المحطة.

ثم انقر لمعرفة أرصاد وتوقعات الطقس.

لتغيير الخارطة: اضغط على الأزرار الخضراء مع رمز الصليب الأسود للتكبير. على الزر الأخضر مع شرطة للتصغير، أو على الأسهم الخضراء للخرائط المجاورة.


METAR-TAF: